sensor_id;sensor_type;location;lat;lon;timestamp;pressure;altitude;pressure_sealevel;temperature;humidity
69187;BME280;56301;56.864;60.554;2022-12-07T00:01:57;100585.56;;;24.48;25.50
69187;BME280;56301;56.864;60.554;2022-12-07T00:04:19;100591.94;;;24.47;25.84
69187;BME280;56301;56.864;60.554;2022-12-07T00:06:42;100587.41;;;24.47;25.40
69187;BME280;56301;56.864;60.554;2022-12-07T00:09:05;100587.41;;;24.47;25.43
69187;BME280;56301;56.864;60.554;2022-12-07T00:11:28;100588.38;;;24.46;25.75
69187;BME280;56301;56.864;60.554;2022-12-07T00:13:54;100587.41;;;24.47;25.26
69187;BME280;56301;56.864;60.554;2022-12-07T00:16:18;100594.66;;;24.47;25.44
69187;BME280;56301;56.864;60.554;2022-12-07T00:18:41;100601.81;;;24.48;25.25
69187;BME280;56301;56.864;60.554;2022-12-07T00:21:05;100605.34;;;24.48;25.05
69187;BME280;56301;56.864;60.554;2022-12-07T00:23:27;100617.03;;;24.49;25.62
69187;BME280;56301;56.864;60.554;2022-12-07T00:25:50;100607.06;;;24.49;25.52
69187;BME280;56301;56.864;60.554;2022-12-07T00:28:12;100605.22;;;24.50;25.48
69187;BME280;56301;56.864;60.554;2022-12-07T00:30:35;100601.66;;;24.49;25.73
69187;BME280;56301;56.864;60.554;2022-12-07T00:32:57;100594.53;;;24.48;25.41
69187;BME280;56301;56.864;60.554;2022-12-07T00:35:20;100591.94;;;24.47;25.95
69187;BME280;56301;56.864;60.554;2022-12-07T00:37:42;100588.53;;;24.45;26.14
69187;BME280;56301;56.864;60.554;2022-12-07T00:40:05;100592.09;;;24.45;26.25
69187;BME280;56301;56.864;60.554;2022-12-07T00:42:28;100582.28;;;24.44;25.74
69187;BME280;56301;56.864;60.554;2022-12-07T00:44:50;100576.00;;;24.44;25.80
69187;BME280;56301;56.864;60.554;2022-12-07T00:47:12;100576.00;;;24.44;25.85
69187;BME280;56301;56.864;60.554;2022-12-07T00:49:35;100571.72;;;24.41;26.19
69187;BME280;56301;56.864;60.554;2022-12-07T00:51:57;100571.84;;;24.40;26.10
69187;BME280;56301;56.864;60.554;2022-12-07T00:54:20;100571.97;;;24.38;26.26
69187;BME280;56301;56.864;60.554;2022-12-07T00:56:43;100571.13;;;24.38;25.58
69187;BME280;56301;56.864;60.554;2022-12-07T00:59:05;100576.63;;;24.36;25.76
69187;BME280;56301;56.864;60.554;2022-12-07T01:01:29;100573.09;;;24.36;25.52
69187;BME280;56301;56.864;60.554;2022-12-07T01:03:52;100573.09;;;24.36;25.48
69187;BME280;56301;56.864;60.554;2022-12-07T01:06:15;100573.09;;;24.36;25.72
69187;BME280;56301;56.864;60.554;2022-12-07T01:08:37;100559.72;;;24.34;25.68
69187;BME280;56301;56.864;60.554;2022-12-07T01:11:01;100567.81;;;24.34;25.85
69187;BME280;56301;56.864;60.554;2022-12-07T01:13:24;100560.72;;;24.33;25.23
69187;BME280;56301;56.864;60.554;2022-12-07T01:15:47;100558.84;;;24.34;25.59
69187;BME280;56301;56.864;60.554;2022-12-07T01:18:09;100550.88;;;24.32;25.58
69187;BME280;56301;56.864;60.554;2022-12-07T01:20:32;100546.31;;;24.33;25.47
69187;BME280;56301;56.864;60.554;2022-12-07T01:22:55;100550.88;;;24.32;25.42
69187;BME280;56301;56.864;60.554;2022-12-07T01:25:18;100567.09;;;24.32;26.08
69187;BME280;56301;56.864;60.554;2022-12-07T01:27:41;100562.53;;;24.33;25.58
69187;BME280;56301;56.864;60.554;2022-12-07T01:30:04;100562.25;;;24.36;25.77
69187;BME280;56301;56.864;60.554;2022-12-07T01:32:27;100563.84;;;24.38;26.33
69187;BME280;56301;56.864;60.554;2022-12-07T01:34:49;100562.00;;;24.39;26.39
69187;BME280;56301;56.864;60.554;2022-12-07T01:37:12;100563.72;;;24.40;26.48
69187;BME280;56301;56.864;60.554;2022-12-07T01:39:34;100562.00;;;24.39;26.68
69187;BME280;56301;56.864;60.554;2022-12-07T01:41:56;100567.41;;;24.39;26.72
69187;BME280;56301;56.864;60.554;2022-12-07T01:44:25;100567.41;;;24.39;26.72
69187;BME280;56301;56.864;60.554;2022-12-07T01:46:49;100571.00;;;24.39;26.92
69187;BME280;56301;56.864;60.554;2022-12-07T01:49:16;100578.00;;;24.42;26.54
69187;BME280;56301;56.864;60.554;2022-12-07T01:51:40;100575.44;;;24.40;27.03
69187;BME280;56301;56.864;60.554;2022-12-07T01:54:03;100568.28;;;24.39;27.31
69187;BME280;56301;56.864;60.554;2022-12-07T01:56:26;100572.81;;;24.39;27.17
69187;BME280;56301;56.864;60.554;2022-12-07T01:58:49;100580.94;;;24.39;27.17
69187;BME280;56301;56.864;60.554;2022-12-07T02:01:13;100579.97;;;24.40;27.44
69187;BME280;56301;56.864;60.554;2022-12-07T02:03:40;100581.69;;;24.41;26.40
69187;BME280;56301;56.864;60.554;2022-12-07T02:06:03;100579.41;;;24.46;26.63
69187;BME280;56301;56.864;60.554;2022-12-07T02:08:26;100576.72;;;24.46;26.48
69187;BME280;56301;56.864;60.554;2022-12-07T02:10:49;100581.13;;;24.47;26.43
69187;BME280;56301;56.864;60.554;2022-12-07T02:13:13;100580.16;;;24.48;26.58
69187;BME280;56301;56.864;60.554;2022-12-07T02:31:12;100572.88;;;24.48;26.90
69187;BME280;56301;56.864;60.554;2022-12-07T02:33:39;100564.75;;;24.48;26.99
69187;BME280;56301;56.864;60.554;2022-12-07T02:36:06;100572.03;;;24.48;27.45
69187;BME280;56301;56.864;60.554;2022-12-07T02:40:53;100572.03;;;24.48;27.05
69187;BME280;56301;56.864;60.554;2022-12-07T02:43:18;100574.59;;;24.49;26.65
69187;BME280;56301;56.864;60.554;2022-12-07T02:45:41;100563.75;;;24.49;26.83
69187;BME280;56301;56.864;60.554;2022-12-07T02:48:06;100553.78;;;24.40;27.32
69187;BME280;56301;56.864;60.554;2022-12-07T02:50:30;100568.31;;;24.49;27.40
69187;BME280;56301;56.864;60.554;2022-12-07T02:52:52;100566.63;;;24.48;27.90
69187;BME280;56301;56.864;60.554;2022-12-07T02:55:15;100564.03;;;24.46;28.10
69187;BME280;56301;56.864;60.554;2022-12-07T02:58:01;100561.47;;;24.45;27.97
69187;BME280;56301;56.864;60.554;2022-12-07T03:00:28;100551.66;;;24.44;28.50
69187;BME280;56301;56.864;60.554;2022-12-07T03:02:54;100553.47;;;24.43;28.20
69187;BME280;56301;56.864;60.554;2022-12-07T03:15:18;100565.03;;;24.45;27.82
69187;BME280;56301;56.864;60.554;2022-12-07T03:17:44;100559.78;;;24.44;27.91
69187;BME280;56301;56.864;60.554;2022-12-07T03:20:09;100564.19;;;24.45;28.33
69187;BME280;56301;56.864;60.554;2022-12-07T03:22:34;100569.44;;;24.46;27.79
69187;BME280;56301;56.864;60.554;2022-12-07T03:24:58;100569.44;;;24.46;27.79
69187;BME280;56301;56.864;60.554;2022-12-07T03:27:31;100550.50;;;24.46;27.74
69187;BME280;56301;56.864;60.554;2022-12-07T03:29:57;100555.81;;;24.48;27.40
69187;BME280;56301;56.864;60.554;2022-12-07T03:32:34;100552.66;;;24.53;27.15
69187;BME280;56301;56.864;60.554;2022-12-07T03:35:22;100558.94;;;24.53;27.44
69187;BME280;56301;56.864;60.554;2022-12-07T03:40:24;100558.94;;;24.53;27.03
69187;BME280;56301;56.864;60.554;2022-12-07T03:42:48;100560.34;;;24.57;27.09
69187;BME280;56301;56.864;60.554;2022-12-07T03:45:11;100558.38;;;24.59;27.86
69187;BME280;56301;56.864;60.554;2022-12-07T03:47:41;100558.38;;;24.59;27.41
69187;BME280;56301;56.864;60.554;2022-12-07T03:52:53;100560.06;;;24.50;28.32
69187;BME280;56301;56.864;60.554;2022-12-07T03:55:18;100558.22;;;24.51;28.04
69187;BME280;56301;56.864;60.554;2022-12-07T03:57:42;100560.63;;;24.44;28.38
69187;BME280;56301;56.864;60.554;2022-12-07T04:00:06;100559.19;;;24.40;28.46
69187;BME280;56301;56.864;60.554;2022-12-07T04:02:34;100563.00;;;24.38;29.16
69187;BME280;56301;56.864;60.554;2022-12-07T04:04:57;100555.88;;;24.37;28.47
69187;BME280;56301;56.864;60.554;2022-12-07T04:07:20;100553.44;;;24.34;28.95
69187;BME280;56301;56.864;60.554;2022-12-07T04:09:42;100554.41;;;24.33;28.77
69187;BME280;56301;56.864;60.554;2022-12-07T04:12:05;100553.28;;;24.35;28.28
69187;BME280;56301;56.864;60.554;2022-12-07T04:14:27;100551.78;;;24.42;27.87
69187;BME280;56301;56.864;60.554;2022-12-07T04:16:53;100554.06;;;24.47;28.42
69187;BME280;56301;56.864;60.554;2022-12-07T04:19:17;100558.50;;;24.48;28.25
69187;BME280;56301;56.864;60.554;2022-12-07T04:21:40;100557.50;;;24.49;28.38
69187;BME280;56301;56.864;60.554;2022-12-07T04:24:03;100565.63;;;24.49;27.89
69187;BME280;56301;56.864;60.554;2022-12-07T04:26:26;100564.63;;;24.50;27.95
69187;BME280;56301;56.864;60.554;2022-12-07T04:28:49;100564.63;;;24.50;28.22
69187;BME280;56301;56.864;60.554;2022-12-07T04:31:11;100562.63;;;24.52;28.41
69187;BME280;56301;56.864;60.554;2022-12-07T04:33:35;100564.50;;;24.52;28.33
69187;BME280;56301;56.864;60.554;2022-12-07T04:35:57;100565.34;;;24.52;29.10
69187;BME280;56301;56.864;60.554;2022-12-07T04:38:20;100566.47;;;24.49;28.96
69187;BME280;56301;56.864;60.554;2022-12-07T04:40:42;100567.19;;;24.52;28.93
69187;BME280;56301;56.864;60.554;2022-12-07T04:43:05;100576.03;;;24.54;28.96
69187;BME280;56301;56.864;60.554;2022-12-07T04:45:27;100576.88;;;24.54;29.16
69187;BME280;56301;56.864;60.554;2022-12-07T04:47:50;100579.56;;;24.54;29.41
69187;BME280;56301;56.864;60.554;2022-12-07T04:50:12;100571.31;;;24.46;28.88
69187;BME280;56301;56.864;60.554;2022-12-07T04:52:34;100569.13;;;24.40;28.91
69187;BME280;56301;56.864;60.554;2022-12-07T04:54:57;100571.22;;;24.36;29.06
69187;BME280;56301;56.864;60.554;2022-12-07T04:57:19;100572.38;;;24.34;29.31
69187;BME280;56301;56.864;60.554;2022-12-07T04:59:42;100576.94;;;24.33;29.32
69187;BME280;56301;56.864;60.554;2022-12-07T05:02:04;100571.38;;;24.35;29.35
69187;BME280;56301;56.864;60.554;2022-12-07T05:04:27;100582.19;;;24.35;29.07
69187;BME280;56301;56.864;60.554;2022-12-07T05:06:50;100575.09;;;24.34;29.17
69187;BME280;56301;56.864;60.554;2022-12-07T05:09:12;100578.75;;;24.33;29.21
69187;BME280;56301;56.864;60.554;2022-12-07T05:11:35;100573.34;;;24.33;29.17
69187;BME280;56301;56.864;60.554;2022-12-07T05:13:57;100567.94;;;24.33;29.44
69187;BME280;56301;56.864;60.554;2022-12-07T05:16:20;100571.66;;;24.32;29.46
69187;BME280;56301;56.864;60.554;2022-12-07T05:18:42;100566.69;;;24.37;29.66
69187;BME280;56301;56.864;60.554;2022-12-07T05:21:05;100571.44;;;24.44;29.56
69187;BME280;56301;56.864;60.554;2022-12-07T05:23:28;100570.28;;;24.47;29.14
69187;BME280;56301;56.864;60.554;2022-12-07T05:25:50;100569.31;;;24.48;29.57
69187;BME280;56301;56.864;60.554;2022-12-07T05:28:12;100560.91;;;24.41;29.23
69187;BME280;56301;56.864;60.554;2022-12-07T05:30:35;100572.13;;;24.37;29.48
69187;BME280;56301;56.864;60.554;2022-12-07T05:32:57;100565.97;;;24.35;29.34
69187;BME280;56301;56.864;60.554;2022-12-07T05:35:20;100564.25;;;24.34;29.15
69187;BME280;56301;56.864;60.554;2022-12-07T05:37:43;100563.41;;;24.33;29.06
69187;BME280;56301;56.864;60.554;2022-12-07T05:40:05;100557.13;;;24.33;29.47
69187;BME280;56301;56.864;60.554;2022-12-07T05:42:28;100554.41;;;24.33;29.32
69187;BME280;56301;56.864;60.554;2022-12-07T05:44:50;100565.25;;;24.33;29.54
69187;BME280;56301;56.864;60.554;2022-12-07T05:47:14;100560.72;;;24.33;29.71
69187;BME280;56301;56.864;60.554;2022-12-07T05:49:36;100557.13;;;24.33;29.82
69187;BME280;56301;56.864;60.554;2022-12-07T05:51:59;100559.72;;;24.34;29.44
69187;BME280;56301;56.864;60.554;2022-12-07T05:54:21;100558.84;;;24.34;29.59
69187;BME280;56301;56.864;60.554;2022-12-07T05:56:44;100562.25;;;24.36;29.30
69187;BME280;56301;56.864;60.554;2022-12-07T05:59:07;100558.72;;;24.35;29.81
69187;BME280;56301;56.864;60.554;2022-12-07T06:01:30;100552.44;;;24.35;29.22
69187;BME280;56301;56.864;60.554;2022-12-07T06:03:52;100549.75;;;24.35;29.51
69187;BME280;56301;56.864;60.554;2022-12-07T06:06:15;100555.88;;;24.37;29.45
69187;BME280;56301;56.864;60.554;2022-12-07T06:08:38;100550.47;;;24.37;29.59
69187;BME280;56301;56.864;60.554;2022-12-07T06:11:00;100550.31;;;24.38;29.80
69187;BME280;56301;56.864;60.554;2022-12-07T06:13:23;100550.31;;;24.38;29.58
69187;BME280;56301;56.864;60.554;2022-12-07T06:15:45;100553.88;;;24.39;29.95
69187;BME280;56301;56.864;60.554;2022-12-07T06:18:09;100547.50;;;24.40;29.59
69187;BME280;56301;56.864;60.554;2022-12-07T06:20:31;100548.38;;;24.40;30.32
69187;BME280;56301;56.864;60.554;2022-12-07T06:22:54;100547.38;;;24.41;30.09
69187;BME280;56301;56.864;60.554;2022-12-07T06:25:16;100536.56;;;24.41;29.94
69187;BME280;56301;56.864;60.554;2022-12-07T06:27:39;100537.41;;;24.42;29.83
69187;BME280;56301;56.864;60.554;2022-12-07T06:30:01;100530.97;;;24.43;29.94
69187;BME280;56301;56.864;60.554;2022-12-07T06:32:24;100529.00;;;24.45;29.56
69187;BME280;56301;56.864;60.554;2022-12-07T06:34:46;100521.75;;;24.45;29.92
69187;BME280;56301;56.864;60.554;2022-12-07T06:37:09;100527.31;;;24.44;29.58
69187;BME280;56301;56.864;60.554;2022-12-07T06:39:31;100525.56;;;24.43;29.99
69187;BME280;56301;56.864;60.554;2022-12-07T06:41:54;100521.91;;;24.44;29.91
69187;BME280;56301;56.864;60.554;2022-12-07T06:44:16;100516.50;;;24.44;29.83
69187;BME280;56301;56.864;60.554;2022-12-07T06:46:40;100524.44;;;24.45;29.75
69187;BME280;56301;56.864;60.554;2022-12-07T06:49:03;100523.91;;;24.52;30.11
69187;BME280;56301;56.864;60.554;2022-12-07T06:51:25;100517.94;;;24.67;30.14
69187;BME280;56301;56.864;60.554;2022-12-07T06:53:48;100520.06;;;24.83;29.48
69187;BME280;56301;56.864;60.554;2022-12-07T06:56:10;100519.53;;;24.99;29.52
69187;BME280;56301;56.864;60.554;2022-12-07T06:58:33;100521.22;;;25.19;28.52
69187;BME280;56301;56.864;60.554;2022-12-07T07:00:55;100510.66;;;25.36;29.54
69187;BME280;56301;56.864;60.554;2022-12-07T07:03:19;100519.47;;;25.48;28.59
69187;BME280;56301;56.864;60.554;2022-12-07T07:05:42;100509.31;;;25.59;28.94
69187;BME280;56301;56.864;60.554;2022-12-07T07:08:04;100508.44;;;25.68;28.66
69187;BME280;56301;56.864;60.554;2022-12-07T07:10:27;100512.97;;;25.78;28.75
69187;BME280;56301;56.864;60.554;2022-12-07T07:12:49;100505.00;;;25.86;28.20
69187;BME280;56301;56.864;60.554;2022-12-07T07:15:12;100499.66;;;25.94;28.23
69187;BME280;56301;56.864;60.554;2022-12-07T07:17:34;100494.34;;;26.02;28.50
69187;BME280;56301;56.864;60.554;2022-12-07T07:19:57;100492.75;;;26.09;27.91
69187;BME280;56301;56.864;60.554;2022-12-07T07:22:19;100491.13;;;26.16;28.43
69187;BME280;56301;56.864;60.554;2022-12-07T07:24:42;100438.13;;;26.22;28.09
69187;BME280;56301;56.864;60.554;2022-12-07T07:27:05;100496.34;;;26.28;27.90
69187;BME280;56301;56.864;60.554;2022-12-07T07:29:27;100494.06;;;26.33;28.27
69187;BME280;56301;56.864;60.554;2022-12-07T07:31:50;100489.84;;;26.38;28.03
69187;BME280;56301;56.864;60.554;2022-12-07T07:34:12;100484.97;;;26.42;27.88
69187;BME280;56301;56.864;60.554;2022-12-07T07:36:35;100477.28;;;26.47;27.67
69187;BME280;56301;56.864;60.554;2022-12-07T07:38:57;100475.78;;;26.53;27.85
69187;BME280;56301;56.864;60.554;2022-12-07T07:41:20;100479.75;;;26.58;27.75
69187;BME280;56301;56.864;60.554;2022-12-07T07:43:42;100475.72;;;26.62;28.54
69187;BME280;56301;56.864;60.554;2022-12-07T07:46:04;100477.97;;;26.67;27.43
69187;BME280;56301;56.864;60.554;2022-12-07T07:48:27;100477.50;;;26.72;27.54
69187;BME280;56301;56.864;60.554;2022-12-07T07:50:49;100470.91;;;26.74;27.47
69187;BME280;56301;56.864;60.554;2022-12-07T07:53:12;100471.44;;;26.78;28.21
69187;BME280;56301;56.864;60.554;2022-12-07T07:55:34;100473.00;;;26.80;27.78
69187;BME280;56301;56.864;60.554;2022-12-07T07:57:57;100464.69;;;26.82;27.50
69187;BME280;56301;56.864;60.554;2022-12-07T08:00:20;100474.41;;;26.84;28.43
69187;BME280;56301;56.864;60.554;2022-12-07T08:02:43;100463.53;;;26.84;28.43
69187;BME280;56301;56.864;60.554;2022-12-07T08:05:05;100467.25;;;26.83;28.40
69187;BME280;56301;56.864;60.554;2022-12-07T08:07:28;100466.72;;;26.80;28.54
69187;BME280;56301;56.864;60.554;2022-12-07T08:09:50;100460.41;;;26.79;27.92
69187;BME280;56301;56.864;60.554;2022-12-07T08:12:13;100459.88;;;26.76;27.73
69187;BME280;56301;56.864;60.554;2022-12-07T08:14:35;100459.88;;;26.76;27.89
69187;BME280;56301;56.864;60.554;2022-12-07T08:16:58;100460.03;;;26.74;28.27
69187;BME280;56301;56.864;60.554;2022-12-07T08:19:20;100464.47;;;26.75;28.36
69187;BME280;56301;56.864;60.554;2022-12-07T08:21:43;100456.16;;;26.77;28.99
69187;BME280;56301;56.864;60.554;2022-12-07T08:24:05;100455.88;;;26.80;27.97
69187;BME280;56301;56.864;60.554;2022-12-07T08:26:28;100455.53;;;26.83;29.03
69187;BME280;56301;56.864;60.554;2022-12-07T08:28:52;100456.53;;;26.82;29.02
69187;BME280;56301;56.864;60.554;2022-12-07T08:31:15;100456.53;;;26.82;29.30
69187;BME280;56301;56.864;60.554;2022-12-07T08:33:38;100456.84;;;26.79;29.07
69187;BME280;56301;56.864;60.554;2022-12-07T08:36:05;100461.59;;;26.77;29.42
69187;BME280;56301;56.864;60.554;2022-12-07T08:38:27;100456.47;;;26.74;28.77
69187;BME280;56301;56.864;60.554;2022-12-07T08:40:54;100454.38;;;26.68;28.58
69187;BME280;56301;56.864;60.554;2022-12-07T08:43:16;100446.84;;;26.61;28.88
69187;BME280;56301;56.864;60.554;2022-12-07T08:45:39;100446.63;;;26.55;29.08
69187;BME280;56301;56.864;60.554;2022-12-07T08:48:04;100437.53;;;26.46;29.65
69187;BME280;56301;56.864;60.554;2022-12-07T08:50:28;100443.41;;;26.41;29.66
69187;BME280;56301;56.864;60.554;2022-12-07T08:52:51;100442.69;;;26.39;29.87
69187;BME280;56301;56.864;60.554;2022-12-07T08:55:15;100437.28;;;26.39;29.04
69187;BME280;56301;56.864;60.554;2022-12-07T08:57:38;100439.97;;;26.39;29.34
69187;BME280;56301;56.864;60.554;2022-12-07T09:00:02;100434.41;;;26.41;29.94
69187;BME280;56301;56.864;60.554;2022-12-07T09:02:25;100437.13;;;26.41;29.54
69187;BME280;56301;56.864;60.554;2022-12-07T09:04:48;100432.72;;;26.40;29.36
69187;BME280;56301;56.864;60.554;2022-12-07T09:07:10;100435.31;;;26.32;29.20
69187;BME280;56301;56.864;60.554;2022-12-07T09:09:33;100438.97;;;26.23;29.07
69187;BME280;56301;56.864;60.554;2022-12-07T09:11:55;100436.31;;;26.13;29.49
69187;BME280;56301;56.864;60.554;2022-12-07T09:14:18;100439.97;;;26.04;29.52
69187;BME280;56301;56.864;60.554;2022-12-07T09:16:40;100438.69;;;25.98;29.04
69187;BME280;56301;56.864;60.554;2022-12-07T09:19:03;100441.03;;;25.93;29.75
69187;BME280;56301;56.864;60.554;2022-12-07T09:21:26;100437.03;;;25.87;29.84
69187;BME280;56301;56.864;60.554;2022-12-07T09:23:48;100436.50;;;25.84;29.89
69187;BME280;56301;56.864;60.554;2022-12-07T09:26:10;100433.38;;;25.79;30.19
69187;BME280;56301;56.864;60.554;2022-12-07T09:28:33;100432.78;;;25.75;29.64
69187;BME280;56301;56.864;60.554;2022-12-07T09:30:56;100440.22;;;25.73;30.23
69187;BME280;56301;56.864;60.554;2022-12-07T09:33:18;100436.94;;;25.69;29.58
69187;BME280;56301;56.864;60.554;2022-12-07T09:35:45;100441.69;;;25.67;30.57
69187;BME280;56301;56.864;60.554;2022-12-07T09:38:07;100435.69;;;25.64;30.40
69187;BME280;56301;56.864;60.554;2022-12-07T09:40:30;100431.44;;;25.61;30.17
69187;BME280;56301;56.864;60.554;2022-12-07T09:42:53;100438.00;;;25.59;30.35
69187;BME280;56301;56.864;60.554;2022-12-07T09:45:18;100434.72;;;25.55;29.97
69187;BME280;56301;56.864;60.554;2022-12-07T09:47:42;100433.16;;;25.53;30.55
69187;BME280;56301;56.864;60.554;2022-12-07T09:50:06;100424.34;;;25.51;29.85
69187;BME280;56301;56.864;60.554;2022-12-07T09:52:29;100432.75;;;25.48;29.86
69187;BME280;56301;56.864;60.554;2022-12-07T09:54:52;100436.47;;;25.47;30.60
69187;BME280;56301;56.864;60.554;2022-12-07T09:57:15;100431.19;;;25.45;30.78
69187;BME280;56301;56.864;60.554;2022-12-07T09:59:37;100425.09;;;25.43;30.82
69187;BME280;56301;56.864;60.554;2022-12-07T10:02:17;100418.09;;;25.40;30.11
69187;BME280;56301;56.864;60.554;2022-12-07T10:04:43;100416.53;;;25.38;30.11
69187;BME280;56301;56.864;60.554;2022-12-07T10:07:06;100416.69;;;25.36;30.27
69187;BME280;56301;56.864;60.554;2022-12-07T10:09:28;100415.13;;;25.34;30.17
69187;BME280;56301;56.864;60.554;2022-12-07T10:11:58;100405.28;;;25.33;30.71
69187;BME280;56301;56.864;60.554;2022-12-07T10:14:20;100411.84;;;25.30;29.92
69187;BME280;56301;56.864;60.554;2022-12-07T10:16:43;100403.03;;;25.28;30.50
69187;BME280;56301;56.864;60.554;2022-12-07T10:19:20;100404.00;;;25.27;30.34
69187;BME280;56301;56.864;60.554;2022-12-07T10:21:42;100413.31;;;25.25;30.28
69187;BME280;56301;56.864;60.554;2022-12-07T10:24:21;100411.56;;;25.24;30.25
69187;BME280;56301;56.864;60.554;2022-12-07T10:31:38;100400.50;;;25.17;30.35
69187;BME280;56301;56.864;60.554;2022-12-07T10:34:01;100399.66;;;25.16;30.12
69187;BME280;56301;56.864;60.554;2022-12-07T10:36:25;100400.63;;;25.15;29.87
69187;BME280;56301;56.864;60.554;2022-12-07T10:38:49;100396.38;;;25.13;30.03
69187;BME280;56301;56.864;60.554;2022-12-07T10:41:12;100399.09;;;25.13;29.78
69187;BME280;56301;56.864;60.554;2022-12-07T10:43:35;100391.09;;;25.11;30.40
69187;BME280;56301;56.864;60.554;2022-12-07T10:48:51;100397.63;;;25.09;29.84
69187;BME280;56301;56.864;60.554;2022-12-07T10:51:20;100396.75;;;25.08;30.00
69187;BME280;56301;56.864;60.554;2022-12-07T11:12:10;100392.25;;;24.99;29.82
69187;BME280;56301;56.864;60.554;2022-12-07T11:24:15;100401.66;;;24.95;29.74
69187;BME280;56301;56.864;60.554;2022-12-07T11:33:57;100389.38;;;24.91;29.57
69187;BME280;56301;56.864;60.554;2022-12-07T11:39:01;100386.84;;;24.89;29.89
69187;BME280;56301;56.864;60.554;2022-12-07T11:41:27;100390.56;;;24.88;29.84
69187;BME280;56301;56.864;60.554;2022-12-07T11:43:52;100396.94;;;24.87;29.61
69187;BME280;56301;56.864;60.554;2022-12-07T11:46:15;100394.25;;;24.87;29.77
69187;BME280;56301;56.864;60.554;2022-12-07T11:48:44;100388.97;;;24.86;29.96
69187;BME280;56301;56.864;60.554;2022-12-07T11:51:09;100396.41;;;24.84;29.78
69187;BME280;56301;56.864;60.554;2022-12-07T11:53:34;100388.97;;;24.86;29.63
69187;BME280;56301;56.864;60.554;2022-12-07T11:56:00;100391.69;;;24.86;29.41
69187;BME280;56301;56.864;60.554;2022-12-07T12:00:51;100391.97;;;24.83;29.71
69187;BME280;56301;56.864;60.554;2022-12-07T12:03:21;100389.25;;;24.83;29.22
69187;BME280;56301;56.864;60.554;2022-12-07T12:05:47;100382.16;;;24.82;29.25
69187;BME280;56301;56.864;60.554;2022-12-07T12:08:17;100385.72;;;24.82;29.42
69187;BME280;56301;56.864;60.554;2022-12-07T12:10:45;100390.28;;;24.82;29.69
69187;BME280;56301;56.864;60.554;2022-12-07T12:16:26;100391.28;;;24.81;29.73
69187;BME280;56301;56.864;60.554;2022-12-07T12:19:42;100390.44;;;24.80;29.66
69187;BME280;56301;56.864;60.554;2022-12-07T12:21:39;100391.41;;;24.79;29.79
69187;BME280;56301;56.864;60.554;2022-12-07T12:24:09;100384.13;;;24.80;29.34
69187;BME280;56301;56.864;60.554;2022-12-07T12:26:34;100385.16;;;24.79;29.34
69187;BME280;56301;56.864;60.554;2022-12-07T12:28:58;100374.31;;;24.79;29.85
69187;BME280;56301;56.864;60.554;2022-12-07T12:38:50;100370.03;;;24.76;29.74
69187;BME280;56301;56.864;60.554;2022-12-07T12:41:50;100378.16;;;24.76;29.34
69187;BME280;56301;56.864;60.554;2022-12-07T12:43:55;100370.03;;;24.76;29.28
69187;BME280;56301;56.864;60.554;2022-12-07T12:48:52;100368.34;;;24.75;29.44
69187;BME280;56301;56.864;60.554;2022-12-07T12:54:15;100369.47;;;24.72;29.52
69187;BME280;56301;56.864;60.554;2022-12-07T13:02:10;100371.19;;;24.73;29.48
69187;BME280;56301;56.864;60.554;2022-12-07T13:04:39;100364.38;;;24.69;29.43
69187;BME280;56301;56.864;60.554;2022-12-07T13:07:01;100367.66;;;24.73;29.70
69187;BME280;56301;56.864;60.554;2022-12-07T13:09:28;100364.06;;;24.72;29.60
69187;BME280;56301;56.864;60.554;2022-12-07T13:11:59;100369.47;;;24.72;29.55
69187;BME280;56301;56.864;60.554;2022-12-07T13:17:00;100363.09;;;24.73;29.80
69187;BME280;56301;56.864;60.554;2022-12-07T13:22:03;100368.34;;;24.75;29.99
69187;BME280;56301;56.864;60.554;2022-12-07T13:24:26;100360.38;;;24.73;29.69
69187;BME280;56301;56.864;60.554;2022-12-07T13:26:48;100364.78;;;24.74;29.66
69187;BME280;56301;56.864;60.554;2022-12-07T13:31:36;100368.50;;;24.73;29.63
69187;BME280;56301;56.864;60.554;2022-12-07T13:34:00;100363.09;;;24.73;29.86
69187;BME280;56301;56.864;60.554;2022-12-07T13:36:24;100371.19;;;24.73;29.73
69187;BME280;56301;56.864;60.554;2022-12-07T13:38:55;100371.19;;;24.73;30.09
69187;BME280;56301;56.864;60.554;2022-12-07T13:41:18;100364.94;;;24.73;29.95
69187;BME280;56301;56.864;60.554;2022-12-07T13:43:45;100361.34;;;24.72;30.17
69187;BME280;56301;56.864;60.554;2022-12-07T13:46:08;100357.78;;;24.72;29.67
69187;BME280;56301;56.864;60.554;2022-12-07T13:48:33;100352.53;;;24.70;29.72
69187;BME280;56301;56.864;60.554;2022-12-07T13:50:57;100359.81;;;24.70;29.54
69187;BME280;56301;56.864;60.554;2022-12-07T13:53:21;100354.41;;;24.70;29.42
69187;BME280;56301;56.864;60.554;2022-12-07T13:55:45;100358.97;;;24.69;29.61
69187;BME280;56301;56.864;60.554;2022-12-07T13:58:08;100357.09;;;24.70;29.56
69187;BME280;56301;56.864;60.554;2022-12-07T14:00:30;100350.84;;;24.69;29.61
69187;BME280;56301;56.864;60.554;2022-12-07T14:03:35;100355.25;;;24.70;29.77
69187;BME280;56301;56.864;60.554;2022-12-07T14:05:39;100349.84;;;24.70;29.76
69187;BME280;56301;56.864;60.554;2022-12-07T14:08:21;100348.13;;;24.69;29.82
69187;BME280;56301;56.864;60.554;2022-12-07T14:13:24;100343.69;;;24.68;29.76
69187;BME280;56301;56.864;60.554;2022-12-07T14:15:52;100344.53;;;24.69;30.05
69187;BME280;56301;56.864;60.554;2022-12-07T14:18:27;100342.84;;;24.68;29.50